createdAt,value
2022-08-27T00:02:08.594Z,32.60
2022-08-27T00:04:38.253Z,32.70
2022-08-27T00:07:07.057Z,32.60
2022-08-27T00:09:36.196Z,32.60
2022-08-27T00:12:05.385Z,32.60
2022-08-27T00:14:33.976Z,32.60
2022-08-27T00:17:03.432Z,32.60
2022-08-27T00:19:31.368Z,32.60
2022-08-27T00:21:59.342Z,32.60
2022-08-27T00:24:27.176Z,32.60
2022-08-27T00:26:55.007Z,32.60
2022-08-27T00:29:22.973Z,32.60
2022-08-27T00:31:53.305Z,32.60
2022-08-27T00:34:24.626Z,32.60
2022-08-27T00:36:53.881Z,32.60
2022-08-27T00:39:22.184Z,32.60
2022-08-27T00:41:50.191Z,32.60
2022-08-27T00:44:18.183Z,32.60
2022-08-27T00:46:50.629Z,32.60
2022-08-27T00:49:33.206Z,32.60
2022-08-27T00:52:12.899Z,32.60
2022-08-27T00:54:41.422Z,32.60
2022-08-27T00:57:09.558Z,32.50
2022-08-27T00:59:37.950Z,32.50
2022-08-27T01:02:21.005Z,32.50
2022-08-27T01:04:56.086Z,32.50
2022-08-27T01:07:28.635Z,32.50
2022-08-27T01:10:00.877Z,32.50
2022-08-27T01:12:32.161Z,32.50
2022-08-27T01:15:01.800Z,32.50
2022-08-27T01:17:29.852Z,32.50
2022-08-27T01:20:05.773Z,32.50
2022-08-27T01:22:54.272Z,32.50
2022-08-27T01:25:25.606Z,32.50
2022-08-27T01:27:57.488Z,32.50
2022-08-27T01:30:26.000Z,32.50
2022-08-27T01:32:54.901Z,32.50
2022-08-27T01:35:23.967Z,32.50
2022-08-27T01:37:57.188Z,32.50
2022-08-27T01:40:26.514Z,32.50
2022-08-27T01:42:58.168Z,32.50
2022-08-27T01:45:29.653Z,32.40
2022-08-27T01:47:59.301Z,32.40
2022-08-27T01:50:31.118Z,32.40
2022-08-27T01:53:02.460Z,32.40
2022-08-27T01:55:31.634Z,32.40
2022-08-27T01:57:59.521Z,32.40
2022-08-27T02:00:32.172Z,32.40
2022-08-27T02:03:00.900Z,32.40
2022-08-27T02:05:30.388Z,32.40
2022-08-27T02:07:59.289Z,32.40
2022-08-27T02:10:34.210Z,32.40
2022-08-27T02:13:02.512Z,32.40
2022-08-27T02:15:31.754Z,32.40
2022-08-27T02:17:59.575Z,32.40
2022-08-27T02:20:29.440Z,32.40
2022-08-27T02:22:57.570Z,32.40
2022-08-27T02:25:27.595Z,32.40
2022-08-27T02:28:00.329Z,32.40
2022-08-27T02:30:32.116Z,32.40
2022-08-27T02:33:00.627Z,32.40
2022-08-27T02:35:30.338Z,32.40
2022-08-27T02:37:59.111Z,32.40
2022-08-27T02:40:27.510Z,32.40
2022-08-27T02:42:56.708Z,32.40
2022-08-27T02:45:24.593Z,32.30
2022-08-27T02:47:52.423Z,32.30
2022-08-27T02:50:20.543Z,32.30
2022-08-27T02:52:48.550Z,32.30
2022-08-27T02:55:17.175Z,32.30
2022-08-27T02:57:45.848Z,32.30
2022-08-27T03:00:20.896Z,32.30
2022-08-27T03:02:50.001Z,32.30
2022-08-27T03:05:19.706Z,32.30
2022-08-27T03:07:49.485Z,32.30
2022-08-27T03:10:20.873Z,32.30
2022-08-27T03:12:49.130Z,32.30
2022-08-27T03:15:20.613Z,32.30
2022-08-27T03:18:06.224Z,32.30
2022-08-27T03:20:35.412Z,32.30
2022-08-27T03:23:03.199Z,32.30
2022-08-27T03:25:32.067Z,32.30
2022-08-27T03:28:00.894Z,32.30
2022-08-27T03:30:30.202Z,32.30
2022-08-27T03:32:58.028Z,32.30
2022-08-27T03:35:26.047Z,32.30
2022-08-27T03:37:54.273Z,32.30
2022-08-27T03:40:22.318Z,32.30
2022-08-27T03:42:50.901Z,32.20
2022-08-27T03:45:18.805Z,32.20
2022-08-27T03:47:48.086Z,32.20
2022-08-27T03:50:15.903Z,32.20
2022-08-27T03:52:43.717Z,32.20
2022-08-27T03:55:11.971Z,32.20
2022-08-27T03:57:40.885Z,32.20
2022-08-27T04:00:11.766Z,32.20
2022-08-27T04:02:40.677Z,32.20
2022-08-27T04:05:11.194Z,32.20
2022-08-27T04:07:40.081Z,32.20
2022-08-27T04:10:10.719Z,32.20
2022-08-27T04:12:39.564Z,32.20
2022-08-27T04:15:10.547Z,32.20
2022-08-27T04:17:39.507Z,32.20
2022-08-27T04:20:34.024Z,32.20
2022-08-27T04:22:59.293Z,32.20
2022-08-27T04:25:27.183Z,32.20
2022-08-27T04:27:55.026Z,32.20
2022-08-27T04:30:22.869Z,32.20
2022-08-27T04:32:51.563Z,32.20
2022-08-27T04:35:20.803Z,32.20
2022-08-27T04:37:48.892Z,32.20
2022-08-27T04:40:17.093Z,32.20
2022-08-27T04:42:45.520Z,32.10
2022-08-27T04:45:13.444Z,32.10
2022-08-27T04:47:41.307Z,32.10
2022-08-27T04:50:09.882Z,32.10
2022-08-27T04:52:40.908Z,32.10
2022-08-27T04:55:10.821Z,32.10
2022-08-27T04:57:38.848Z,32.10
2022-08-27T05:00:08.565Z,32.10
2022-08-27T05:02:36.415Z,32.10
2022-08-27T05:05:04.321Z,32.10
2022-08-27T05:07:32.196Z,32.10
2022-08-27T05:10:01.358Z,32.10
2022-08-27T05:12:29.148Z,32.10
2022-08-27T05:14:57.010Z,32.10
2022-08-27T05:17:24.844Z,32.10
2022-08-27T05:19:52.684Z,32.10
2022-08-27T05:22:20.480Z,32.10
2022-08-27T05:24:50.255Z,32.10
2022-08-27T05:27:19.822Z,32.10
2022-08-27T05:29:47.645Z,32.10
2022-08-27T05:32:15.489Z,32.10
2022-08-27T05:34:43.767Z,32.10
2022-08-27T05:37:11.707Z,32.00
2022-08-27T05:39:39.992Z,32.00
2022-08-27T05:42:08.042Z,32.00
2022-08-27T05:44:41.642Z,32.00
2022-08-27T05:47:10.356Z,32.00
2022-08-27T05:49:38.773Z,32.00
2022-08-27T05:52:11.194Z,32.00
2022-08-27T05:54:39.995Z,32.00
2022-08-27T05:57:08.209Z,32.00
2022-08-27T05:59:55.319Z,32.00
2022-08-27T06:02:23.356Z,32.00
2022-08-27T06:04:51.391Z,32.00
2022-08-27T06:07:19.743Z,32.00
2022-08-27T06:09:47.556Z,32.00
2022-08-27T06:12:15.448Z,32.00
2022-08-27T06:14:44.647Z,32.00
2022-08-27T06:17:12.506Z,32.00
2022-08-27T06:19:42.363Z,32.00
2022-08-27T06:22:11.048Z,32.00
2022-08-27T06:24:41.811Z,32.00
2022-08-27T06:27:12.941Z,32.00
2022-08-27T06:29:42.039Z,32.00
2022-08-27T06:32:12.359Z,32.00
2022-08-27T06:34:40.632Z,32.00
2022-08-27T06:37:09.266Z,32.00
2022-08-27T06:39:39.373Z,32.00
2022-08-27T06:42:11.815Z,32.00
2022-08-27T06:44:39.805Z,32.00
2022-08-27T06:47:07.982Z,32.00
2022-08-27T06:49:41.711Z,32.00
2022-08-27T06:52:14.252Z,32.00
2022-08-27T06:54:42.059Z,32.00
2022-08-27T06:57:09.915Z,32.00
2022-08-27T06:59:38.812Z,32.00
2022-08-27T07:02:08.321Z,32.00
2022-08-27T07:04:37.686Z,32.00
2022-08-27T07:07:05.907Z,32.00
2022-08-27T07:09:35.523Z,32.00
2022-08-27T07:12:05.178Z,32.00
2022-08-27T07:14:37.950Z,31.90
2022-08-27T07:17:10.903Z,31.90
2022-08-27T07:19:41.256Z,31.90
2022-08-27T07:22:10.860Z,31.90
2022-08-27T07:24:38.740Z,31.90
2022-08-27T07:27:07.874Z,31.90
2022-08-27T07:29:36.221Z,31.90
2022-08-27T07:32:04.605Z,31.90
2022-08-27T07:34:32.528Z,31.90
2022-08-27T07:37:01.689Z,31.90
2022-08-27T07:39:29.510Z,31.90
2022-08-27T07:42:15.229Z,31.90
2022-08-27T07:44:43.138Z,31.90
2022-08-27T07:47:10.960Z,31.90
2022-08-27T07:49:38.797Z,31.80
2022-08-27T07:52:07.974Z,31.90
2022-08-27T07:54:35.841Z,31.80
2022-08-27T07:57:04.051Z,31.80
2022-08-27T07:59:31.865Z,31.80
2022-08-27T08:02:00.093Z,31.80
2022-08-27T08:04:27.964Z,31.80
2022-08-27T08:06:56.833Z,31.80
2022-08-27T08:09:26.310Z,31.80
2022-08-27T08:11:55.196Z,31.80
2022-08-27T08:14:23.232Z,31.80
2022-08-27T08:16:51.544Z,31.80
2022-08-27T08:19:19.644Z,31.80
2022-08-27T08:21:47.447Z,31.80
2022-08-27T08:24:15.254Z,31.80
2022-08-27T08:26:44.415Z,31.80
2022-08-27T08:29:16.674Z,31.80
2022-08-27T08:31:49.844Z,31.80
2022-08-27T08:34:19.312Z,31.80
2022-08-27T08:36:54.086Z,31.70
2022-08-27T08:39:23.066Z,31.80
2022-08-27T08:41:56.299Z,31.70
2022-08-27T08:44:32.446Z,31.70
2022-08-27T08:47:08.827Z,31.70
2022-08-27T08:49:50.643Z,31.70
2022-08-27T08:52:31.471Z,31.70
2022-08-27T08:55:29.375Z,31.70
2022-08-27T08:58:15.511Z,31.70
2022-08-27T09:00:46.305Z,31.70
2022-08-27T09:03:16.126Z,31.70
2022-08-27T09:05:54.704Z,31.70
2022-08-27T09:08:37.793Z,31.70
2022-08-27T09:11:19.501Z,31.70
2022-08-27T09:13:54.359Z,31.70
2022-08-27T09:16:23.115Z,31.70
2022-08-27T09:18:52.623Z,31.60
2022-08-27T09:21:34.105Z,31.60
2022-08-27T09:24:14.701Z,31.60
2022-08-27T09:26:45.347Z,31.60
2022-08-27T09:29:20.205Z,31.60
2022-08-27T09:31:56.138Z,31.60
2022-08-27T09:34:25.211Z,31.60
2022-08-27T09:37:02.922Z,31.60
2022-08-27T09:39:41.645Z,31.60
2022-08-27T09:42:09.940Z,31.60
2022-08-27T09:44:53.373Z,31.60
2022-08-27T09:47:21.579Z,31.60
2022-08-27T09:49:49.936Z,31.60
2022-08-27T09:52:37.882Z,31.60
2022-08-27T09:55:07.808Z,31.60
2022-08-27T09:57:41.316Z,31.60
2022-08-27T10:00:17.950Z,31.60
2022-08-27T10:02:54.946Z,31.60
2022-08-27T10:05:32.224Z,31.60
2022-08-27T10:08:05.440Z,31.60
2022-08-27T10:10:55.246Z,31.60
2022-08-27T10:13:31.206Z,31.70
2022-08-27T10:16:23.602Z,31.70
2022-08-27T10:19:05.052Z,31.70
2022-08-27T10:21:42.887Z,31.70
2022-08-27T10:24:26.143Z,31.70
2022-08-27T10:27:09.645Z,31.70
2022-08-27T10:29:48.357Z,31.80
2022-08-27T10:32:41.335Z,31.70
2022-08-27T10:35:18.567Z,31.80
2022-08-27T10:37:59.393Z,31.80
2022-08-27T10:40:33.125Z,31.80
2022-08-27T10:43:24.013Z,31.80
2022-08-27T10:46:03.728Z,31.80
2022-08-27T10:48:40.628Z,31.90
2022-08-27T10:51:19.180Z,31.90
2022-08-27T10:53:58.181Z,31.90
2022-08-27T10:56:34.070Z,31.90
2022-08-27T10:59:27.145Z,31.90
2022-08-27T11:02:07.772Z,31.90
2022-08-27T11:04:44.364Z,31.90
2022-08-27T11:07:20.568Z,31.90
2022-08-27T11:09:56.966Z,32.00
2022-08-27T11:12:32.282Z,32.00
2022-08-27T11:15:06.465Z,32.00
2022-08-27T11:17:43.869Z,32.00
2022-08-27T11:20:19.673Z,32.00
2022-08-27T11:22:53.750Z,32.00
2022-08-27T11:25:40.791Z,32.00
2022-08-27T11:28:12.134Z,32.00
2022-08-27T11:30:56.451Z,32.10
2022-08-27T11:33:31.414Z,32.10
2022-08-27T11:36:24.962Z,32.10
2022-08-27T11:38:58.692Z,32.10
2022-08-27T11:41:55.670Z,32.10
2022-08-27T11:44:27.732Z,32.10
2022-08-27T11:47:09.061Z,32.10
2022-08-27T11:49:47.371Z,32.20
2022-08-27T11:52:27.009Z,32.20
2022-08-27T11:55:12.744Z,32.20
2022-08-27T11:57:40.763Z,32.20
2022-08-27T12:00:20.500Z,32.20
2022-08-27T12:02:59.591Z,32.20
2022-08-27T12:05:37.854Z,32.20
2022-08-27T12:08:29.830Z,32.30
2022-08-27T12:11:20.552Z,32.30
2022-08-27T12:14:01.767Z,32.30
2022-08-27T12:16:44.532Z,32.30
2022-08-27T12:19:43.093Z,32.30
2022-08-27T12:22:54.856Z,32.30
2022-08-27T12:25:25.330Z,32.30
2022-08-27T12:27:59.404Z,32.30
2022-08-27T12:30:34.417Z,32.30
2022-08-27T12:33:15.473Z,32.30
2022-08-27T12:35:48.119Z,32.30
2022-08-27T12:38:21.116Z,32.30
2022-08-27T12:40:54.712Z,32.30
2022-08-27T12:43:26.293Z,32.30
2022-08-27T12:45:59.651Z,32.30
2022-08-27T12:48:35.665Z,32.30
2022-08-27T12:51:10.085Z,32.30
2022-08-27T12:53:47.985Z,32.30
2022-08-27T12:56:40.117Z,32.30
2022-08-27T12:59:35.379Z,32.30
2022-08-27T13:02:23.988Z,32.30
2022-08-27T13:04:52.815Z,32.30
2022-08-27T13:07:28.733Z,32.30
2022-08-27T13:10:14.210Z,32.30
2022-08-27T13:12:45.451Z,32.30
2022-08-27T13:15:16.828Z,32.40
2022-08-27T13:17:47.778Z,32.40
2022-08-27T13:20:22.413Z,32.30
2022-08-27T13:22:53.135Z,32.40
2022-08-27T13:25:25.088Z,32.40
2022-08-27T13:27:59.267Z,32.40
2022-08-27T13:30:35.772Z,32.40
2022-08-27T13:33:08.502Z,32.40
2022-08-27T13:35:37.628Z,32.40
2022-08-27T13:38:07.068Z,32.40
2022-08-27T13:40:38.770Z,32.40
2022-08-27T13:43:12.493Z,32.40
2022-08-27T13:45:42.824Z,32.40
2022-08-27T13:48:13.712Z,32.40
2022-08-27T13:50:51.841Z,32.40
2022-08-27T13:53:42.432Z,32.40
2022-08-27T13:56:11.693Z,32.40
2022-08-27T13:58:40.873Z,32.40
2022-08-27T14:01:12.954Z,32.40
2022-08-27T14:03:50.387Z,32.40
2022-08-27T14:06:31.592Z,32.40
2022-08-27T14:09:16.197Z,32.40
2022-08-27T14:11:46.143Z,32.40
2022-08-27T14:14:17.710Z,32.40
2022-08-27T14:16:45.708Z,32.40
2022-08-27T14:19:27.045Z,32.40
2022-08-27T14:21:56.886Z,32.40
2022-08-27T14:24:24.964Z,32.40
2022-08-27T14:26:54.717Z,32.40
2022-08-27T14:29:23.941Z,32.40
2022-08-27T14:31:52.259Z,32.40
2022-08-27T14:34:20.549Z,32.40
2022-08-27T14:36:51.771Z,32.40
2022-08-27T14:39:26.554Z,32.40
2022-08-27T14:41:55.353Z,32.40
2022-08-27T14:44:24.594Z,32.40
2022-08-27T14:46:53.163Z,32.40
2022-08-27T14:49:27.623Z,32.40
2022-08-27T14:51:55.615Z,32.40
2022-08-27T14:54:24.134Z,32.40
2022-08-27T14:57:02.938Z,32.40
2022-08-27T14:59:33.093Z,32.40
2022-08-27T15:02:02.399Z,32.40
2022-08-27T15:04:32.238Z,32.40
2022-08-27T15:07:01.076Z,32.50
2022-08-27T15:09:29.846Z,32.50
2022-08-27T15:11:58.511Z,32.50
2022-08-27T15:14:29.562Z,32.40
2022-08-27T15:16:59.955Z,32.40
2022-08-27T15:19:29.872Z,32.50
2022-08-27T15:22:05.837Z,32.50
2022-08-27T15:24:42.574Z,32.50
2022-08-27T15:27:10.500Z,32.50
2022-08-27T15:29:38.963Z,32.50
2022-08-27T15:32:28.850Z,32.50
2022-08-27T15:34:57.580Z,32.50
2022-08-27T15:37:26.154Z,32.50
2022-08-27T15:39:54.801Z,32.50
2022-08-27T15:42:23.063Z,32.50
2022-08-27T15:44:54.562Z,32.50
2022-08-27T15:47:24.613Z,32.50
2022-08-27T15:49:52.889Z,32.50
2022-08-27T15:52:24.013Z,32.50
2022-08-27T15:54:52.092Z,32.50
2022-08-27T15:57:21.511Z,32.50
2022-08-27T15:59:50.690Z,32.50
2022-08-27T16:02:25.359Z,32.50
2022-08-27T16:04:53.326Z,32.50
2022-08-27T16:07:21.572Z,32.50
2022-08-27T16:09:49.499Z,32.50
2022-08-27T16:12:27.080Z,32.50
2022-08-27T16:14:55.607Z,32.50
2022-08-27T16:17:26.573Z,32.50
2022-08-27T16:19:54.744Z,32.50
2022-08-27T16:22:22.639Z,32.50
2022-08-27T16:24:50.784Z,32.50
2022-08-27T16:27:18.651Z,32.50
2022-08-27T16:29:46.447Z,32.50
2022-08-27T16:32:19.141Z,32.50
2022-08-27T16:34:55.840Z,32.40
2022-08-27T16:37:24.639Z,32.50
2022-08-27T16:39:53.165Z,32.50
2022-08-27T16:42:21.552Z,32.50
2022-08-27T16:44:49.703Z,32.40
2022-08-27T16:47:17.907Z,32.40
2022-08-27T16:50:03.204Z,32.40
2022-08-27T16:52:32.418Z,32.40
2022-08-27T16:55:00.469Z,32.40
2022-08-27T16:57:28.414Z,32.40
2022-08-27T16:59:56.319Z,32.40
2022-08-27T17:02:31.221Z,32.40
2022-08-27T17:05:17.826Z,32.40
2022-08-27T17:07:50.355Z,32.40
2022-08-27T17:10:19.224Z,32.40
2022-08-27T17:12:48.484Z,32.40
2022-08-27T17:15:18.126Z,32.40
2022-08-27T17:17:46.412Z,32.40
2022-08-27T17:20:15.713Z,32.40
2022-08-27T17:22:44.327Z,32.40
2022-08-27T17:25:13.581Z,32.40
2022-08-27T17:27:41.389Z,32.40
2022-08-27T17:30:11.092Z,32.40
2022-08-27T17:32:43.536Z,32.40
2022-08-27T17:35:14.057Z,32.40
2022-08-27T17:37:43.092Z,32.40
2022-08-27T17:40:13.639Z,32.40
2022-08-27T17:42:41.807Z,32.40
2022-08-27T17:45:11.132Z,32.40
2022-08-27T17:47:38.961Z,32.40
2022-08-27T17:50:09.197Z,32.40
2022-08-27T17:52:39.885Z,32.40
2022-08-27T17:55:08.700Z,32.40
2022-08-27T17:57:41.035Z,32.40
2022-08-27T18:00:13.341Z,32.40
2022-08-27T18:02:48.515Z,32.40
2022-08-27T18:05:19.045Z,32.40
2022-08-27T18:07:48.615Z,32.30
2022-08-27T18:10:22.852Z,32.30
2022-08-27T18:12:53.580Z,32.30
2022-08-27T18:15:24.276Z,32.30
2022-08-27T18:17:53.713Z,32.40
2022-08-27T18:20:24.926Z,32.30
2022-08-27T18:22:53.574Z,32.30
2022-08-27T18:25:25.832Z,32.30
2022-08-27T18:28:00.041Z,32.30
2022-08-27T18:30:28.902Z,32.30
2022-08-27T18:32:56.876Z,32.30
2022-08-27T18:35:28.008Z,32.30
2022-08-27T18:37:56.390Z,32.30
2022-08-27T18:40:28.428Z,32.30
2022-08-27T18:42:58.976Z,32.20
2022-08-27T18:45:30.191Z,32.20
2022-08-27T18:48:02.314Z,32.20
2022-08-27T18:50:30.415Z,32.20
2022-08-27T18:52:58.882Z,32.20
2022-08-27T18:55:28.723Z,32.20
2022-08-27T18:57:58.179Z,32.20
2022-08-27T19:00:26.116Z,32.20
2022-08-27T19:02:54.542Z,32.20
2022-08-27T19:05:30.197Z,32.20
2022-08-27T19:08:00.747Z,32.20
2022-08-27T19:10:34.586Z,32.20
2022-08-27T19:13:04.262Z,32.20
2022-08-27T19:15:32.352Z,32.20
2022-08-27T19:18:03.122Z,32.20
2022-08-27T19:20:30.975Z,32.20
2022-08-27T19:23:00.365Z,32.30
2022-08-27T19:25:30.008Z,32.30
2022-08-27T19:27:58.006Z,32.20
2022-08-27T19:30:27.329Z,32.20
2022-08-27T19:32:57.725Z,32.20
2022-08-27T19:35:26.411Z,32.20
2022-08-27T19:37:54.680Z,32.20
2022-08-27T19:40:23.743Z,32.20
2022-08-27T19:42:52.059Z,32.20
2022-08-27T19:45:23.165Z,32.20
2022-08-27T19:47:54.647Z,32.20
2022-08-27T19:50:24.463Z,32.20
2022-08-27T19:52:53.404Z,32.20
2022-08-27T19:55:22.539Z,32.20
2022-08-27T19:57:51.177Z,32.20
2022-08-27T20:00:22.695Z,32.20
2022-08-27T20:02:50.935Z,32.20
2022-08-27T20:05:22.770Z,32.20
2022-08-27T20:07:53.401Z,32.20
2022-08-27T20:10:30.056Z,32.20
2022-08-27T20:13:04.008Z,32.20
2022-08-27T20:15:32.058Z,32.20
2022-08-27T20:18:00.320Z,32.20
2022-08-27T20:20:30.291Z,32.20
2022-08-27T20:22:59.236Z,32.20
2022-08-27T20:25:27.691Z,32.20
2022-08-27T20:27:55.566Z,32.20
2022-08-27T20:30:27.328Z,32.20
2022-08-27T20:32:55.351Z,32.10
2022-08-27T20:35:24.205Z,32.10
2022-08-27T20:37:53.929Z,32.10
2022-08-27T20:40:25.653Z,32.10
2022-08-27T20:42:53.902Z,32.10
2022-08-27T20:45:21.945Z,32.10
2022-08-27T20:47:50.718Z,32.10
2022-08-27T20:50:19.942Z,32.10
2022-08-27T20:52:48.807Z,32.10
2022-08-27T20:55:18.455Z,32.10
2022-08-27T20:58:05.839Z,32.10
2022-08-27T21:00:37.879Z,32.10
2022-08-27T21:03:05.765Z,32.10
2022-08-27T21:05:35.563Z,32.10
2022-08-27T21:08:05.443Z,32.10
2022-08-27T21:10:36.203Z,32.10
2022-08-27T21:13:06.682Z,32.10
2022-08-27T21:15:36.813Z,32.10
2022-08-27T21:18:04.901Z,32.10
2022-08-27T21:20:33.199Z,32.10
2022-08-27T21:23:01.928Z,32.10
2022-08-27T21:25:29.824Z,32.00
2022-08-27T21:28:00.355Z,32.00
2022-08-27T21:30:28.664Z,32.00
2022-08-27T21:32:57.105Z,32.00
2022-08-27T21:35:27.421Z,32.00
2022-08-27T21:37:55.527Z,32.00
2022-08-27T21:40:25.193Z,32.00
2022-08-27T21:42:53.626Z,32.00
2022-08-27T21:45:23.891Z,32.00
2022-08-27T21:47:52.476Z,32.00
2022-08-27T21:50:22.114Z,32.00
2022-08-27T21:52:50.503Z,32.00
2022-08-27T21:55:19.225Z,32.00
2022-08-27T21:57:47.756Z,32.00
2022-08-27T22:00:41.197Z,32.00
2022-08-27T22:03:15.083Z,32.00
2022-08-27T22:05:45.818Z,32.00
2022-08-27T22:08:17.423Z,32.00
2022-08-27T22:10:48.652Z,32.00
2022-08-27T22:13:17.683Z,32.00
2022-08-27T22:15:47.008Z,32.00
2022-08-27T22:18:15.459Z,32.00
2022-08-27T22:20:44.414Z,32.00
2022-08-27T22:23:14.168Z,32.00
2022-08-27T22:25:43.548Z,31.90
2022-08-27T22:28:12.587Z,31.90
2022-08-27T22:30:41.920Z,31.90
2022-08-27T22:33:11.192Z,31.90
2022-08-27T22:35:39.532Z,31.90
2022-08-27T22:38:09.158Z,31.90
2022-08-27T22:40:37.701Z,31.90
2022-08-27T22:43:06.613Z,31.90
2022-08-27T22:45:34.947Z,31.90
2022-08-27T22:48:03.101Z,31.90
2022-08-27T22:50:32.538Z,31.90
2022-08-27T22:53:00.596Z,31.90
2022-08-27T22:55:30.606Z,31.90
2022-08-27T22:57:58.519Z,31.90
2022-08-27T23:00:30.560Z,31.90
2022-08-27T23:02:58.924Z,31.90
2022-08-27T23:05:28.033Z,31.90
2022-08-27T23:08:11.792Z,31.90
2022-08-27T23:10:41.738Z,31.90
2022-08-27T23:13:10.448Z,31.90
2022-08-27T23:15:39.459Z,31.90
2022-08-27T23:18:08.135Z,31.90
2022-08-27T23:20:36.272Z,31.90
2022-08-27T23:23:04.326Z,31.90
2022-08-27T23:25:52.807Z,31.90
2022-08-27T23:28:21.572Z,31.90
2022-08-27T23:30:49.630Z,31.90
2022-08-27T23:33:18.068Z,31.90
2022-08-27T23:35:48.285Z,31.90
2022-08-27T23:38:17.520Z,31.90
2022-08-27T23:40:48.216Z,31.90
2022-08-27T23:43:16.828Z,31.90
2022-08-27T23:45:44.881Z,31.90
2022-08-27T23:48:14.106Z,31.80
2022-08-27T23:50:42.935Z,31.80
2022-08-27T23:53:12.172Z,31.80
2022-08-27T23:55:41.256Z,31.80
2022-08-27T23:58:11.675Z,31.80
